Archiv-/Tagesdaten

--Timestamp---	Temp	Chill	HIndex	Humid	Dewpt	 Wind 	HiWind	WindDir	Rain 	Barom	Solar	 ET  	 UV 
--------------	----	-----	------	-----	-----	------	------	-------	-----	-----	-----	-----	----
20100329 00:00	6.9	5.4	6.9	85	4.6	8	16	248	0.0	1012.4	0	0.025	0.0
20100329 00:05	6.9	5.8	6.9	86	4.8	6	13	248	0.0	1012.4	0	0.000	0.0
20100329 00:10	6.9	5.8	6.9	86	4.8	6	13	225	0.0	1012.4	0	0.000	0.0
20100329 00:15	6.9	5.8	6.9	86	4.7	6	16	225	0.0	1012.4	0	0.000	0.0
20100329 00:20	6.9	5.4	6.9	86	4.7	8	14	225	0.0	1012.4	0	0.000	0.0
20100329 00:25	6.8	5.7	6.8	86	4.7	6	11	225	0.0	1012.4	0	0.000	0.0
20100329 00:30	6.8	5.7	6.8	86	4.7	6	14	225	0.0	1012.4	0	0.000	0.0
20100329 00:35	6.8	5.7	6.8	86	4.7	6	14	225	0.0	1012.4	0	0.000	0.0
20100329 00:40	6.8	5.7	6.8	86	4.6	6	14	248	0.0	1012.4	0	0.000	0.0
20100329 00:45	6.8	5.7	6.8	86	4.6	6	14	225	0.0	1012.4	0	0.000	0.0
20100329 00:50	6.8	5.2	6.8	86	4.6	8	11	225	0.0	1012.5	0	0.000	0.0
20100329 00:55	6.8	5.3	6.8	86	4.7	8	16	248	0.0	1012.4	0	0.000	0.0
20100329 01:00	6.9	5.4	6.9	86	4.7	8	11	248	0.0	1012.3	0	0.025	0.0
20100329 01:05	6.9	5.1	6.9	86	4.8	10	16	225	0.0	1012.1	0	0.000	0.0
20100329 01:10	7.1	5.0	7.1	86	4.9	11	19	225	0.0	1012.0	0	0.000	0.0
20100329 01:15	7.2	4.6	7.2	85	4.9	14	23	248	0.0	1012.0	0	0.000	0.0
20100329 01:20	7.2	5.1	7.2	85	4.9	11	21	248	0.0	1011.9	0	0.000	0.0
20100329 01:25	7.2	5.1	7.2	86	5.0	11	19	225	0.0	1011.9	0	0.000	0.0
20100329 01:30	7.3	5.8	7.3	86	5.1	8	21	248	0.0	1011.9	0	0.000	0.0
20100329 01:35	7.3	5.8	7.3	86	5.1	8	18	248	0.0	1011.8	0	0.000	0.0
20100329 01:40	7.3	6.2	7.3	86	5.1	6	16	248	0.0	1011.8	0	0.000	0.0
20100329 01:45	7.3	6.2	7.3	86	5.1	6	14	248	0.0	1011.7	0	0.000	0.0
20100329 01:50	7.2	5.7	7.2	86	5.0	8	19	248	0.0	1011.7	0	0.000	0.0
20100329 01:55	7.3	5.2	7.3	86	5.1	11	18	248	0.0	1011.7	0	0.000	0.0
20100329 02:00	7.3	5.5	7.3	86	5.1	10	21	225	0.0	1011.6	0	0.025	0.0
20100329 02:05	7.4	5.9	7.4	86	5.2	8	13	270	0.0	1011.6	0	0.000	0.0
20100329 02:10	7.5	5.7	7.5	85	5.1	10	19	248	0.0	1011.6	0	0.000	0.0
20100329 02:15	7.6	5.8	7.6	85	5.2	10	18	248	0.0	1011.4	0	0.000	0.0
20100329 02:20	7.6	5.9	7.6	85	5.3	10	16	248	0.0	1011.4	0	0.000	0.0
20100329 02:25	7.7	5.6	7.7	85	5.3	11	18	248	0.0	1011.4	0	0.000	0.0
20100329 02:30	7.7	6.3	7.7	85	5.3	8	16	248	0.0	1011.4	0	0.000	0.0
20100329 02:35	7.7	6.3	7.7	84	5.2	8	14	248	0.0	1011.3	0	0.000	0.0
20100329 02:40	7.7	6.0	7.7	84	5.2	10	16	248	0.0	1011.3	0	0.000	0.0
20100329 02:45	7.7	5.4	7.7	84	5.2	13	19	248	0.0	1011.3	0	0.000	0.0
20100329 02:50	7.7	5.7	7.7	84	5.2	11	18	248	0.0	1011.3	0	0.000	0.0
20100329 02:55	7.7	5.7	7.7	84	5.2	11	18	248	0.0	1011.3	0	0.000	0.0
20100329 03:00	7.7	5.7	7.7	84	5.2	11	16	248	0.0	1011.3	0	0.025	0.0
20100329 03:05	7.7	5.7	7.7	84	5.2	11	18	248	0.0	1011.4	0	0.000	0.0
20100329 03:10	7.7	5.7	7.7	84	5.2	11	21	248	0.0	1011.4	0	0.000	0.0
20100329 03:15	7.7	6.0	7.7	85	5.4	10	16	248	0.0	1011.2	0	0.000	0.0
20100329 03:20	7.7	6.0	7.7	84	5.2	10	19	248	0.0	1011.2	0	0.000	0.0
20100329 03:25	7.7	5.4	7.7	84	5.2	13	19	248	0.0	1011.1	0	0.000	0.0
20100329 03:30	7.7	5.9	7.7	84	5.1	10	18	225	0.0	1011.1	0	0.000	0.0
20100329 03:35	7.7	5.7	7.7	85	5.4	11	21	225	0.0	1011.2	0	0.000	0.0
20100329 03:40	7.7	6.3	7.7	85	5.4	8	16	248	0.0	1011.1	0	0.000	0.0
20100329 03:45	7.8	6.4	7.8	85	5.4	8	16	248	0.0	1011.1	0	0.000	0.0
20100329 03:50	7.8	6.5	7.8	85	5.5	8	18	248	0.0	1011.0	0	0.000	0.0
20100329 03:55	7.9	6.2	7.9	85	5.5	10	18	248	0.0	1011.0	0	0.000	0.0
20100329 04:00	7.9	6.6	7.9	84	5.4	8	16	248	0.0	1011.0	0	0.025	0.0
20100329 04:05	8.0	6.7	8.0	84	5.5	8	16	248	0.0	1011.0	0	0.000	0.0
20100329 04:10	8.0	6.7	8.0	84	5.5	8	11	225	0.0	1011.0	0	0.000	0.0
20100329 04:15	8.0	6.3	8.0	84	5.5	10	16	248	0.0	1011.0	0	0.000	0.0
20100329 04:20	8.0	6.7	8.0	84	5.5	8	16	248	0.0	1011.0	0	0.000	0.0
20100329 04:25	8.1	7.1	8.1	84	5.5	6	14	225	0.0	1010.9	0	0.000	0.0
20100329 04:30	8.1	6.7	8.1	84	5.5	8	14	248	0.0	1010.9	0	0.000	0.0
20100329 04:35	8.1	6.7	8.1	84	5.5	8	14	248	0.0	1010.8	0	0.000	0.0
20100329 04:40	8.1	6.8	8.1	84	5.6	8	14	248	0.0	1010.8	0	0.000	0.0
20100329 04:45	8.2	6.5	8.2	84	5.6	10	18	248	0.0	1010.8	0	0.000	0.0
20100329 04:50	8.2	6.3	8.2	83	5.5	11	19	248	0.0	1010.8	0	0.000	0.0
20100329 04:55	8.3	7.0	8.3	83	5.6	8	16	248	0.0	1010.8	0	0.000	0.0
20100329 05:00	8.3	6.7	8.3	83	5.6	10	18	248	0.0	1010.8	0	0.025	0.0
20100329 05:05	8.3	6.7	8.3	83	5.6	10	16	248	0.0	1010.8	0	0.000	0.0
20100329 05:10	8.4	6.8	8.4	82	5.5	10	19	248	0.0	1010.7	0	0.000	0.0
20100329 05:15	8.4	6.9	8.4	83	5.7	10	21	248	0.0	1010.8	0	0.000	0.0
20100329 05:20	8.5	6.6	8.5	83	5.8	11	21	248	0.0	1010.8	0	0.000	0.0
20100329 05:25	8.5	6.6	8.5	83	5.8	11	24	270	0.0	1010.8	0	0.000	0.0
20100329 05:30	8.6	7.0	8.6	83	5.8	10	23	248	0.0	1010.8	0	0.000	0.0
20100329 05:35	8.6	6.3	8.6	82	5.7	14	26	248	0.0	1010.6	0	0.000	0.0
20100329 05:40	8.7	6.6	8.7	83	5.9	13	26	248	0.0	1010.7	0	0.000	0.0
20100329 05:45	8.6	6.8	8.6	83	5.9	11	19	248	0.0	1010.6	0	0.000	0.0
20100329 05:50	8.6	6.7	8.6	84	6.0	11	23	270	0.0	1010.8	0	0.000	0.0
20100329 05:55	8.5	6.4	8.5	84	6.0	13	23	270	0.0	1010.7	0	0.000	0.0
20100329 06:00	8.5	6.4	8.5	84	6.0	13	26	248	0.0	1010.7	0	0.025	0.0
20100329 06:05	8.5	6.9	8.5	84	6.0	10	18	248	0.0	1010.7	0	0.000	0.0
20100329 06:10	8.5	6.9	8.5	84	6.0	10	19	248	0.0	1010.7	0	0.000	0.0
20100329 06:15	8.5	7.2	8.5	84	6.0	8	18	248	0.0	1010.7	0	0.000	0.0
20100329 06:20	8.5	7.2	8.5	84	6.0	8	14	225	0.0	1010.6	0	0.000	0.0
20100329 06:25	8.5	7.2	8.5	84	6.0	8	18	248	0.0	1010.6	0	0.000	0.0
20100329 06:30	8.5	7.2	8.5	83	5.8	8	14	225	0.0	1010.6	0	0.000	0.0
20100329 06:35	8.4	7.2	8.4	84	5.9	8	16	225	0.0	1010.7	0	0.000	0.0
20100329 06:40	8.4	7.5	8.4	84	5.8	6	10	225	0.0	1010.7	0	0.000	0.0
20100329 06:45	8.3	7.0	8.3	85	5.9	8	11	225	0.0	1010.6	0	0.000	0.0
20100329 06:50	8.1	6.8	8.1	85	5.7	8	14	202	0.0	1010.6	0	0.000	0.0
20100329 06:55	8.1	6.7	8.1	86	5.9	8	11	202	0.0	1010.5	0	0.000	0.0
20100329 07:00	8.0	7.1	8.0	86	5.8	6	13	180	0.0	1010.6	3	0.025	0.0
20100329 07:05	8.0	8.0	8.0	86	5.8	5	10	180	0.0	1010.7	7	0.000	0.0
20100329 07:10	7.9	7.9	7.9	86	5.7	5	10	180	0.0	1010.7	9	0.000	0.0
20100329 07:15	7.8	7.8	7.8	86	5.6	5	10	202	0.0	1010.7	9	0.000	0.0
20100329 07:20	7.8	7.8	7.8	87	5.8	3	8	180	0.0	1010.7	11	0.000	0.0
20100329 07:25	7.7	7.7	7.7	87	5.7	5	8	180	0.0	1010.7	13	0.000	0.0
20100329 07:30	7.7	7.7	7.7	87	5.6	5	10	180	0.0	1010.7	19	0.000	0.0
20100329 07:35	7.7	7.7	7.7	86	5.5	5	10	202	0.0	1010.7	23	0.000	0.0
20100329 07:40	7.7	6.7	7.7	86	5.5	6	11	202	0.0	1010.7	28	0.000	0.0
20100329 07:45	7.8	6.8	7.8	85	5.4	6	11	225	0.0	1010.7	33	0.000	0.0
20100329 07:50	7.8	6.8	7.8	85	5.4	6	10	202	0.0	1010.7	35	0.000	0.0
20100329 07:55	7.8	6.9	7.8	85	5.5	6	11	202	0.0	1010.7	34	0.000	0.0
20100329 08:00	7.9	7.9	7.9	85	5.5	5	11	225	0.0	1010.6	38	0.025	0.0
20100329 08:05	7.9	7.9	7.9	85	5.6	5	10	202	0.0	1010.8	45	0.000	0.0
20100329 08:10	7.9	7.9	7.9	85	5.6	5	8	202	0.0	1010.7	57	0.000	0.0
20100329 08:15	8.0	8.0	8.0	85	5.6	5	10	202	0.0	1010.8	64	0.000	0.0
20100329 08:20	8.1	7.1	8.1	85	5.7	6	11	180	0.0	1010.8	69	0.000	0.0
20100329 08:25	8.1	8.1	8.1	85	5.7	3	8	180	0.0	1010.8	78	0.000	0.0
20100329 08:30	8.1	8.1	8.1	84	5.6	5	11	180	0.0	1010.6	87	0.000	0.0
20100329 08:35	8.2	8.2	8.2	84	5.7	5	11	158	0.0	1010.6	99	0.000	0.0
20100329 08:40	8.3	7.4	8.3	84	5.8	6	11	202	0.0	1010.6	101	0.000	0.0
20100329 08:45	8.4	6.9	8.4	83	5.7	10	16	202	0.0	1010.6	97	0.000	0.0
20100329 08:50	8.6	7.0	8.6	83	5.8	10	18	225	0.0	1010.6	100	0.000	0.0
20100329 08:55	8.7	7.8	8.7	82	5.8	6	16	225	0.0	1010.4	111	0.000	0.0
20100329 09:00	8.7	7.5	8.7	82	5.8	8	14	248	0.0	1010.3	129	0.051	0.4
20100329 09:05	8.8	7.6	8.8	82	5.9	8	13	225	0.0	1010.4	145	0.000	0.5
20100329 09:10	8.9	8.2	8.9	82	6.0	6	11	225	0.0	1010.4	148	0.000	0.5
20100329 09:15	9.1	8.3	9.1	82	6.1	6	11	248	0.0	1010.5	140	0.000	0.5
20100329 09:20	9.2	8.5	9.2	82	6.3	6	16	225	0.0	1010.4	152	0.000	0.6
20100329 09:25	9.3	8.2	9.3	82	6.4	8	16	225	0.0	1010.4	160	0.000	0.7
20100329 09:30	9.4	8.0	9.4	81	6.3	10	16	225	0.0	1010.4	164	0.000	0.7
20100329 09:35	9.5	8.4	9.5	81	6.4	8	11	225	0.0	1010.4	170	0.000	0.8
20100329 09:40	9.7	9.0	9.7	81	6.6	6	11	225	0.0	1010.3	172	0.000	0.9
20100329 09:45	9.9	8.9	9.9	80	6.6	8	14	248	0.0	1010.3	188	0.000	1.0
20100329 09:50	10.2	10.2	10.2	79	6.7	8	14	248	0.0	1010.3	211	0.000	1.0
20100329 09:55	10.4	10.4	10.4	77	6.6	10	18	248	0.0	1010.2	213	0.000	1.0
20100329 10:00	10.7	10.7	10.7	76	6.6	10	18	248	0.0	1010.2	218	0.102	1.1
20100329 10:05	10.8	10.8	10.8	76	6.7	6	16	270	0.0	1010.3	214	0.000	1.1
20100329 10:10	10.9	10.9	10.9	75	6.7	10	18	225	0.0	1010.4	217	0.000	1.2
20100329 10:15	11.1	11.1	11.1	74	6.6	11	19	248	0.0	1010.4	220	0.000	1.2
20100329 10:20	11.2	11.2	11.2	74	6.7	10	18	248	0.0	1010.4	227	0.000	1.3
20100329 10:25	11.3	11.3	11.3	74	6.8	10	19	270	0.0	1010.4	217	0.000	1.2
20100329 10:30	11.3	11.3	11.3	72	6.5	10	18	248	0.0	1010.4	216	0.000	1.3
20100329 10:35	11.3	11.3	11.3	72	6.5	10	16	248	0.0	1010.4	226	0.000	1.4
20100329 10:40	11.4	11.4	11.4	72	6.6	8	14	248	0.0	1010.4	230	0.000	1.5
20100329 10:45	11.6	11.6	11.6	72	6.7	8	16	248	0.0	1010.4	233	0.000	1.5
20100329 10:50	11.7	11.7	11.7	72	6.8	6	11	248	0.0	1010.3	260	0.000	1.5
20100329 10:55	11.8	11.8	11.8	70	6.5	10	21	225	0.0	1010.3	256	0.000	1.4
20100329 11:00	11.9	11.9	11.9	70	6.6	11	23	248	0.0	1010.4	235	0.127	1.4
20100329 11:05	11.9	11.9	11.9	70	6.6	10	18	248	0.0	1010.4	263	0.000	1.5
20100329 11:10	12.1	12.1	12.1	69	6.5	11	21	248	0.0	1010.4	291	0.000	1.7
20100329 11:15	12.3	12.3	12.3	70	7.0	8	16	270	0.0	1010.4	312	0.000	1.9
20100329 11:20	12.6	12.6	12.6	67	6.6	11	19	270	0.0	1010.2	325	0.000	2.0
20100329 11:25	12.7	12.7	12.7	66	6.5	13	21	248	0.0	1010.3	330	0.000	1.9
20100329 11:30	12.7	12.7	12.7	66	6.5	13	24	270	0.0	1010.4	291	0.000	1.8
20100329 11:35	12.7	12.7	12.7	66	6.5	14	26	248	0.0	1010.4	279	0.000	1.7
20100329 11:40	12.7	12.7	12.7	65	6.3	11	21	248	0.0	1010.4	315	0.000	1.9
20100329 11:45	12.8	12.8	12.8	65	6.4	10	18	248	0.0	1010.4	297	0.000	2.0
20100329 11:50	12.8	12.8	12.8	65	6.4	14	26	270	0.0	1010.4	344	0.000	2.3
20100329 11:55	12.8	12.8	12.8	65	6.4	18	27	248	0.0	1010.4	328	0.000	2.2
20100329 12:00	12.9	12.9	12.9	65	6.5	10	21	270	0.0	1010.3	269	0.203	1.9
20100329 12:05	12.8	12.8	12.8	64	6.2	14	21	270	0.0	1010.5	229	0.000	1.6
20100329 12:10	12.8	12.8	12.8	65	6.4	10	19	270	0.0	1010.4	221	0.000	1.5
20100329 12:15	12.9	12.9	12.9	64	6.2	10	18	270	0.0	1010.4	248	0.000	1.7
20100329 12:20	12.8	12.8	12.8	64	6.2	11	19	248	0.0	1010.3	263	0.000	1.7
20100329 12:25	12.8	12.8	12.8	64	6.2	13	19	248	0.0	1010.3	253	0.000	1.7
20100329 12:30	12.9	12.9	12.9	63	6.0	11	19	248	0.0	1010.3	280	0.000	1.9
20100329 12:35	13.0	13.0	13.0	64	6.3	10	16	270	0.0	1010.2	332	0.000	2.1
20100329 12:40	13.2	13.2	13.2	62	6.0	11	24	248	0.0	1010.0	330	0.000	2.1
20100329 12:45	13.3	13.3	13.3	62	6.2	10	21	248	0.0	1010.0	281	0.000	1.9
20100329 12:50	13.3	13.3	13.3	62	6.2	11	19	248	0.0	1010.0	314	0.000	2.1
20100329 12:55	13.3	13.3	13.3	62	6.2	11	18	270	0.0	1010.0	335	0.000	2.3
20100329 13:00	13.4	13.4	13.4	62	6.3	8	18	270	0.0	1009.9	333	0.178	2.3
20100329 13:05	13.6	13.6	13.6	62	6.4	11	19	270	0.0	1009.9	455	0.000	2.8
20100329 13:10	13.8	13.8	13.8	61	6.4	8	13	270	0.0	1009.5	556	0.000	3.3
20100329 13:15	14.1	14.1	14.1	59	6.2	11	21	270	0.0	1009.4	490	0.000	3.1
20100329 13:20	14.1	14.1	14.1	58	6.0	13	24	270	0.0	1009.3	456	0.000	3.1
20100329 13:25	14.1	14.1	14.1	57	5.7	13	21	270	0.0	1009.4	350	0.000	2.7
20100329 13:30	14.1	14.1	14.1	58	5.9	8	14	292	0.0	1009.2	506	0.000	3.3
20100329 13:35	14.2	14.2	14.2	57	5.8	10	26	248	0.0	1009.1	542	0.000	3.4
20100329 13:40	14.4	14.4	14.4	57	6.0	11	19	270	0.0	1009.1	592	0.000	3.6
20100329 13:45	14.4	14.4	14.4	56	5.8	13	26	270	0.0	1009.0	310	0.000	2.7
20100329 13:50	14.4	14.4	14.4	57	6.0	11	23	270	0.0	1009.0	401	0.000	2.8
20100329 13:55	14.4	14.4	14.4	56	5.8	11	19	270	0.0	1009.0	397	0.000	3.5
20100329 14:00	14.4	14.4	14.4	56	5.7	8	14	270	0.0	1009.0	397	0.305	2.9
20100329 14:05	14.5	14.5	14.5	57	6.1	8	16	270	0.0	1008.8	441	0.000	3.3
20100329 14:10	14.5	14.5	14.5	57	6.1	8	10	270	0.0	1008.7	318	0.000	2.9
20100329 14:15	14.7	14.7	14.7	57	6.2	8	16	248	0.0	1008.6	637	0.000	3.7
20100329 14:20	15.0	15.0	15.0	56	6.3	6	10	248	0.0	1008.5	490	0.000	3.2
20100329 14:25	15.0	15.0	15.0	56	6.3	6	11	270	0.0	1008.5	390	0.000	3.0
20100329 14:30	15.0	15.0	15.0	56	6.3	2	8	202	0.0	1008.5	296	0.000	2.3
20100329 14:35	15.0	15.0	15.0	56	6.3	8	11	315	0.0	1008.5	431	0.000	3.0
20100329 14:40	15.0	15.0	15.0	56	6.3	6	14	315	0.0	1008.3	463	0.000	3.1
20100329 14:45	15.2	15.2	15.2	55	6.2	5	10	315	0.0	1008.3	799	0.000	3.5
20100329 14:50	15.5	15.5	15.5	56	6.8	3	8	315	0.0	1008.0	782	0.000	3.2
20100329 14:55	15.6	15.6	15.6	56	6.8	3	10	0	0.0	1007.9	640	0.000	3.1
20100329 15:00	15.6	15.6	15.6	53	6.0	5	10	0	0.0	1007.9	646	0.305	2.9
20100329 15:05	15.6	15.6	15.6	54	6.3	2	6	0	0.0	1007.9	250	0.000	2.4
20100329 15:10	15.6	15.6	15.6	53	6.0	6	10	292	0.0	1007.9	281	0.000	2.0
20100329 15:15	15.6	15.6	15.6	53	6.1	5	5	315	0.0	1007.8	365	0.000	2.1
20100329 15:20	15.6	-100000.0	15.6	52	5.7	-100000	0	-100000	0.0	1007.7	234	0.000	1.9
20100329 15:25	15.6	-100000.0	15.6	53	6.0	-100000	0	-100000	0.0	1007.6	635	0.000	2.2
20100329 15:30	15.6	-100000.0	15.6	53	6.1	-100000	0	-100000	0.0	1007.6	535	0.000	2.5
20100329 15:35	15.7	-100000.0	15.7	53	6.1	-100000	0	-100000	0.0	1007.6	-100000	0.000	1.6
20100329 15:40	15.4	15.4	15.4	52	5.6	8	11	270	0.0	1007.5	269	0.000	1.7
20100329 15:45	15.4	15.4	15.4	52	5.6	10	14	270	0.0	1007.5	380	0.000	2.0
20100329 15:50	15.4	15.4	15.4	52	5.6	8	14	292	0.0	1007.5	336	0.000	2.1
20100329 15:55	15.5	15.5	15.5	52	5.7	5	10	292	0.0	1007.4	300	0.000	1.8
20100329 16:00	15.6	15.6	15.6	52	5.8	3	6	248	0.0	1007.3	547	0.229	2.1
20100329 16:05	15.8	15.8	15.8	53	6.3	0	5	248	0.0	1007.1	465	0.000	2.1
20100329 16:10	15.9	15.9	15.9	50	5.5	3	8	248	0.0	1006.9	293	0.000	1.7
20100329 16:15	15.9	15.9	15.9	51	5.8	2	5	248	0.0	1006.8	279	0.000	1.7
20100329 16:20	16.1	16.1	16.1	51	5.9	3	10	248	0.0	1006.8	595	0.000	1.9
20100329 16:25	16.2	16.2	16.2	50	5.7	5	10	315	0.0	1006.7	540	0.000	2.0
20100329 16:30	16.4	16.4	16.4	49	5.7	3	8	202	0.0	1006.6	503	0.000	1.8
20100329 16:35	16.8	16.8	16.8	48	5.8	5	11	292	0.0	1006.6	464	0.000	1.6
20100329 16:40	17.0	17.0	17.0	48	5.9	0	5	292	0.0	1006.3	471	0.000	1.7
20100329 16:45	16.8	16.8	16.8	49	6.0	3	5	338	0.0	1006.4	416	0.000	1.5
20100329 16:50	16.4	16.4	16.4	50	6.0	2	5	0	0.0	1006.4	98	0.000	1.1
20100329 16:55	16.2	16.2	16.2	50	5.7	3	8	0	0.0	1006.4	83	0.000	1.0
20100329 17:00	16.1	16.1	16.1	50	5.6	3	8	135	0.0	1006.3	233	0.203	1.1
20100329 17:05	16.0	16.0	16.0	50	5.6	3	6	135	0.0	1006.4	295	0.000	1.1
20100329 17:10	16.1	16.1	16.1	49	5.3	0	3	135	0.0	1006.3	331	0.000	1.1
20100329 17:15	16.4	16.4	16.4	48	5.4	3	10	225	0.0	1006.2	302	0.000	1.0
20100329 17:20	16.4	16.4	16.4	48	5.4	5	11	202	0.0	1006.2	275	0.000	0.9
20100329 17:25	16.3	16.3	16.3	48	5.3	5	10	202	0.0	1006.2	205	0.000	0.8
20100329 17:30	16.3	16.3	16.3	48	5.2	3	6	202	0.0	1006.1	203	0.000	0.8
20100329 17:35	16.3	16.3	16.3	49	5.5	2	6	202	0.0	1006.0	188	0.000	0.7
20100329 17:40	16.3	16.3	16.3	49	5.5	3	6	202	0.0	1006.0	179	0.000	0.6
20100329 17:45	16.3	16.3	16.3	51	6.2	3	6	202	0.0	1006.1	184	0.000	0.6
20100329 17:50	16.4	16.4	16.4	52	6.6	2	5	202	0.0	1006.1	250	0.000	0.6
20100329 17:55	16.3	16.3	16.3	51	6.2	3	6	202	0.0	1005.9	167	0.000	0.5
20100329 18:00	16.2	16.2	16.2	50	5.7	5	8	68	0.0	1005.9	195	0.152	0.4
20100329 18:05	15.9	15.9	15.9	51	5.8	3	8	22	0.0	1006.0	76	0.000	0.0
20100329 18:10	15.8	15.8	15.8	51	5.7	3	6	22	0.0	1006.0	143	0.000	0.0
20100329 18:15	15.6	15.6	15.6	51	5.5	3	6	22	0.0	1006.0	63	0.000	0.0
20100329 18:20	15.5	15.5	15.5	51	5.4	3	5	22	0.0	1005.9	80	0.000	0.0
20100329 18:25	15.3	15.3	15.3	51	5.2	2	6	22	0.0	1005.9	60	0.000	0.0
20100329 18:30	15.2	15.2	15.2	52	5.4	2	5	22	0.0	1005.9	47	0.000	0.0
20100329 18:35	15.0	15.0	15.0	53	5.5	0	2	22	0.0	1005.9	40	0.000	0.0
20100329 18:40	15.0	15.0	15.0	55	6.0	2	5	22	0.0	1005.9	30	0.000	0.0
20100329 18:45	14.9	14.9	14.9	56	6.2	3	5	22	0.0	1005.9	25	0.000	0.0
20100329 18:50	14.7	14.7	14.7	56	6.0	3	6	45	0.0	1006.0	23	0.000	0.0
20100329 18:55	14.5	14.5	14.5	57	6.1	3	6	68	0.0	1006.0	23	0.000	0.0
20100329 19:00	14.4	14.4	14.4	58	6.2	0	3	68	0.0	1005.9	26	0.051	0.0
20100329 19:05	14.2	14.2	14.2	60	6.6	2	5	68	0.0	1005.8	28	0.000	0.0
20100329 19:10	14.1	14.1	14.1	59	6.2	5	6	68	0.0	1005.9	30	0.000	0.0
20100329 19:15	14.0	14.0	14.0	60	6.4	5	8	90	0.0	1005.9	26	0.000	0.0
20100329 19:20	13.9	13.9	13.9	60	6.3	5	8	90	0.0	1005.9	18	0.000	0.0
20100329 19:25	13.8	13.8	13.8	60	6.2	5	8	90	0.0	1005.8	12	0.000	0.0
20100329 19:30	13.7	13.7	13.7	61	6.3	3	5	90	0.0	1005.9	8	0.000	0.0
20100329 19:35	13.6	13.6	13.6	61	6.2	3	6	90	0.0	1005.9	3	0.000	0.0
20100329 19:40	13.5	13.5	13.5	61	6.1	3	5	90	0.0	1005.8	0	0.000	0.0
20100329 19:45	13.3	13.3	13.3	62	6.2	3	5	90	0.0	1005.8	0	0.000	0.0
20100329 19:50	13.2	13.2	13.2	63	6.3	0	0	-100000	0.0	1005.9	0	0.000	0.0
20100329 19:55	13.1	13.1	13.1	63	6.2	0	2	90	0.0	1005.9	0	0.000	0.0
20100329 20:00	12.9	12.9	12.9	64	6.3	2	5	90	0.0	1005.9	0	0.025	0.0
20100329 20:05	12.8	12.8	12.8	64	6.2	5	8	90	0.0	1005.8	0	0.000	0.0
20100329 20:10	12.8	12.8	12.8	64	6.1	2	5	90	0.0	1005.8	0	0.000	0.0
20100329 20:15	12.7	12.7	12.7	64	6.1	0	3	90	0.0	1005.9	0	0.000	0.0
20100329 20:20	12.7	12.7	12.7	65	6.3	2	5	90	0.0	1005.9	0	0.000	0.0
20100329 20:25	12.7	12.7	12.7	65	6.3	3	8	90	0.0	1005.8	0	0.000	0.0
20100329 20:30	12.6	12.6	12.6	66	6.4	3	6	90	0.0	1005.7	0	0.000	0.0
20100329 20:35	12.6	12.6	12.6	66	6.4	6	8	112	0.0	1005.7	0	0.000	0.0
20100329 20:40	12.6	12.6	12.6	66	6.4	6	11	112	0.0	1005.6	0	0.000	0.0
20100329 20:45	12.5	12.5	12.5	66	6.3	5	8	112	0.0	1005.7	0	0.000	0.0
20100329 20:50	12.4	12.4	12.4	66	6.3	3	6	112	0.0	1005.7	0	0.000	0.0
20100329 20:55	12.4	12.4	12.4	67	6.5	6	8	112	0.0	1005.5	0	0.000	0.0
20100329 21:00	12.3	12.3	12.3	67	6.4	6	8	112	0.0	1005.5	0	0.025	0.0
20100329 21:05	12.3	12.3	12.3	67	6.3	6	10	112	0.0	1005.4	0	0.000	0.0
20100329 21:10	12.2	12.2	12.2	68	6.5	6	8	112	0.0	1005.3	0	0.000	0.0
20100329 21:15	12.1	12.1	12.1	68	6.4	8	10	112	0.0	1005.2	0	0.000	0.0
20100329 21:20	12.1	12.1	12.1	68	6.3	8	11	135	0.0	1005.3	0	0.000	0.0
20100329 21:25	11.9	11.9	11.9	69	6.4	8	11	135	0.0	1005.0	0	0.000	0.0
20100329 21:30	11.8	11.8	11.8	69	6.3	8	11	112	0.0	1005.0	0	0.000	0.0
20100329 21:35	11.8	11.8	11.8	69	6.3	6	8	112	0.0	1005.1	0	0.000	0.0
20100329 21:40	11.7	11.7	11.7	70	6.4	8	11	135	0.0	1005.0	0	0.000	0.0
20100329 21:45	11.6	11.6	11.6	70	6.3	6	11	135	0.0	1004.8	0	0.000	0.0
20100329 21:50	11.4	11.4	11.4	71	6.4	6	10	135	0.0	1004.8	0	0.000	0.0
20100329 21:55	11.3	11.3	11.3	71	6.2	6	10	135	0.0	1004.8	0	0.000	0.0
20100329 22:00	11.2	11.2	11.2	72	6.3	5	8	135	0.0	1004.7	0	0.051	0.0
20100329 22:05	11.1	11.1	11.1	72	6.2	6	10	135	0.0	1004.5	0	0.000	0.0
20100329 22:10	11.0	11.0	11.0	72	6.1	5	8	135	0.0	1004.4	0	0.000	0.0
20100329 22:15	10.9	10.9	10.9	72	6.0	5	8	135	0.0	1004.4	0	0.000	0.0
20100329 22:20	10.8	10.8	10.8	73	6.1	3	6	135	0.0	1004.3	0	0.000	0.0
20100329 22:25	10.7	10.7	10.7	73	6.0	5	10	135	0.0	1004.3	0	0.000	0.0
20100329 22:30	10.5	10.5	10.5	76	6.4	5	8	135	0.0	1004.2	0	0.000	0.0
20100329 22:35	10.4	10.4	10.4	74	6.0	5	8	135	0.0	1004.2	0	0.000	0.0
20100329 22:40	10.3	10.3	10.3	74	5.9	5	8	135	0.0	1004.2	0	0.000	0.0
20100329 22:45	10.3	10.3	10.3	74	5.8	6	10	135	0.0	1004.2	0	0.000	0.0
20100329 22:50	10.2	10.2	10.2	75	6.0	6	10	135	0.0	1004.2	0	0.000	0.0
20100329 22:55	10.2	10.2	10.2	74	5.7	5	8	135	0.0	1004.3	0	0.000	0.0
20100329 23:00	10.2	10.2	10.2	75	5.9	5	8	135	0.0	1004.3	0	0.025	0.0
20100329 23:05	10.1	10.1	10.1	75	5.9	5	11	135	0.0	1004.1	0	0.000	0.0
20100329 23:10	10.1	10.1	10.1	75	5.9	6	11	135	0.0	1004.1	0	0.000	0.0
20100329 23:15	10.1	10.1	10.1	75	5.8	6	10	135	0.0	1004.0	0	0.000	0.0
20100329 23:20	10.1	10.1	10.1	75	5.8	5	10	135	0.0	1004.0	0	0.000	0.0
20100329 23:25	10.0	10.0	10.0	76	6.0	5	8	135	0.0	1003.9	0	0.000	0.0
20100329 23:30	9.9	9.3	9.9	76	5.9	6	11	135	0.0	1003.8	0	0.000	0.0
20100329 23:35	9.9	9.2	9.9	76	5.9	6	10	135	0.0	1003.7	0	0.000	0.0
20100329 23:40	9.8	9.8	9.8	76	5.8	5	10	135	0.0	1003.7	0	0.000	0.0
20100329 23:45	9.8	9.8	9.8	76	5.8	5	10	135	0.0	1003.7	0	0.000	0.0
20100329 23:50	9.8	9.1	9.8	77	5.9	6	10	135	0.0	1003.6	0	0.000	0.0
20100329 23:55	9.8	9.1	9.8	77	5.9	6	10	135	0.0	1003.6	0	0.000	0.0



Please note the license to use and transfer of this data:
http://creativecommons.org/licenses/by-nc-sa/3.0/deed.en

Bitte beachten sie die Lizenz zur Verwertung und Weitergabe der Daten:
http://creativecommons.org/licenses/by-nc-sa/3.0/deed.de

zurück zur Übersicht der Archivdaten (Monats und Tagesdaten)

Cookies helfen bei der Bereitstellung von Inhalten. Durch die Nutzung dieser Seiten erklärst du dich damit einverstanden, dass Cookies auf deinem Rechner gespeichert werden. Weitere Information